sensor_id;sensor_type;location;lat;lon;timestamp;P1;durP1;ratioP1;P2;durP2;ratioP2
9496;SDS011;4786;51.270;4.456;2023-02-01T00:02:00;18.33;;;6.40;;
9496;SDS011;4786;51.270;4.456;2023-02-01T00:04:26;22.53;;;6.43;;
9496;SDS011;4786;51.270;4.456;2023-02-01T00:06:52;23.00;;;7.30;;
9496;SDS011;4786;51.270;4.456;2023-02-01T00:09:18;19.37;;;6.17;;
9496;SDS011;4786;51.270;4.456;2023-02-01T00:11:44;22.60;;;6.53;;
9496;SDS011;4786;51.270;4.456;2023-02-01T00:14:10;18.57;;;6.90;;
9496;SDS011;4786;51.270;4.456;2023-02-01T00:16:36;22.07;;;6.43;;
9496;SDS011;4786;51.270;4.456;2023-02-01T00:19:12;25.50;;;7.00;;
9496;SDS011;4786;51.270;4.456;2023-02-01T00:21:39;17.30;;;6.37;;
9496;SDS011;4786;51.270;4.456;2023-02-01T00:24:07;25.60;;;6.70;;
9496;SDS011;4786;51.270;4.456;2023-02-01T00:26:35;16.80;;;6.80;;
9496;SDS011;4786;51.270;4.456;2023-02-01T00:29:03;20.50;;;6.53;;
9496;SDS011;4786;51.270;4.456;2023-02-01T00:31:35;18.97;;;7.10;;
9496;SDS011;4786;51.270;4.456;2023-02-01T00:34:02;16.53;;;6.27;;
9496;SDS011;4786;51.270;4.456;2023-02-01T00:36:28;17.37;;;6.33;;
9496;SDS011;4786;51.270;4.456;2023-02-01T00:38:54;19.90;;;7.07;;
9496;SDS011;4786;51.270;4.456;2023-02-01T00:41:21;22.90;;;6.57;;
9496;SDS011;4786;51.270;4.456;2023-02-01T00:43:48;17.83;;;6.60;;
9496;SDS011;4786;51.270;4.456;2023-02-01T00:46:15;22.63;;;7.73;;
9496;SDS011;4786;51.270;4.456;2023-02-01T00:48:43;15.90;;;7.20;;
9496;SDS011;4786;51.270;4.456;2023-02-01T00:51:10;22.23;;;7.03;;
9496;SDS011;4786;51.270;4.456;2023-02-01T00:53:37;20.97;;;7.63;;
9496;SDS011;4786;51.270;4.456;2023-02-01T00:56:03;21.03;;;7.37;;
9496;SDS011;4786;51.270;4.456;2023-02-01T00:58:30;20.90;;;6.97;;
9496;SDS011;4786;51.270;4.456;2023-02-01T01:03:31;17.50;;;5.90;;
9496;SDS011;4786;51.270;4.456;2023-02-01T01:06:02;20.03;;;6.40;;
9496;SDS011;4786;51.270;4.456;2023-02-01T01:08:31;22.93;;;6.07;;
9496;SDS011;4786;51.270;4.456;2023-02-01T01:10:56;19.33;;;5.63;;
9496;SDS011;4786;51.270;4.456;2023-02-01T01:13:23;16.80;;;5.80;;
9496;SDS011;4786;51.270;4.456;2023-02-01T01:15:49;21.77;;;6.20;;
9496;SDS011;4786;51.270;4.456;2023-02-01T01:18:15;21.37;;;5.50;;
9496;SDS011;4786;51.270;4.456;2023-02-01T01:20:41;21.77;;;5.60;;
9496;SDS011;4786;51.270;4.456;2023-02-01T01:23:07;20.50;;;5.90;;
9496;SDS011;4786;51.270;4.456;2023-02-01T01:25:38;16.50;;;5.17;;
9496;SDS011;4786;51.270;4.456;2023-02-01T01:28:05;16.10;;;5.10;;
9496;SDS011;4786;51.270;4.456;2023-02-01T01:30:35;18.03;;;5.30;;
9496;SDS011;4786;51.270;4.456;2023-02-01T01:33:01;17.73;;;4.63;;
9496;SDS011;4786;51.270;4.456;2023-02-01T01:35:28;22.27;;;5.33;;
9496;SDS011;4786;51.270;4.456;2023-02-01T01:37:58;16.27;;;4.70;;
9496;SDS011;4786;51.270;4.456;2023-02-01T01:40:25;16.83;;;5.20;;
9496;SDS011;4786;51.270;4.456;2023-02-01T01:42:52;17.30;;;5.10;;
9496;SDS011;4786;51.270;4.456;2023-02-01T01:47:54;24.70;;;5.33;;
9496;SDS011;4786;51.270;4.456;2023-02-01T01:50:31;20.43;;;5.03;;
9496;SDS011;4786;51.270;4.456;2023-02-01T01:53:01;12.93;;;4.10;;
9496;SDS011;4786;51.270;4.456;2023-02-01T01:55:32;13.67;;;4.53;;
9496;SDS011;4786;51.270;4.456;2023-02-01T01:58:05;14.27;;;4.87;;
9496;SDS011;4786;51.270;4.456;2023-02-01T02:00:34;15.70;;;4.33;;
9496;SDS011;4786;51.270;4.456;2023-02-01T02:03:00;14.63;;;4.40;;
9496;SDS011;4786;51.270;4.456;2023-02-01T02:05:40;18.20;;;4.67;;
9496;SDS011;4786;51.270;4.456;2023-02-01T02:08:06;17.43;;;4.63;;
9496;SDS011;4786;51.270;4.456;2023-02-01T02:10:33;14.70;;;4.07;;
9496;SDS011;4786;51.270;4.456;2023-02-01T02:13:17;24.37;;;4.77;;
9496;SDS011;4786;51.270;4.456;2023-02-01T02:15:55;17.17;;;4.73;;
9496;SDS011;4786;51.270;4.456;2023-02-01T02:27:05;16.57;;;4.53;;
9496;SDS011;4786;51.270;4.456;2023-02-01T02:37:56;18.40;;;5.03;;
9496;SDS011;4786;51.270;4.456;2023-02-01T02:40:41;16.53;;;4.77;;
9496;SDS011;4786;51.270;4.456;2023-02-01T02:46:04;23.20;;;5.23;;
9496;SDS011;4786;51.270;4.456;2023-02-01T02:51:35;22.13;;;5.13;;
9496;SDS011;4786;51.270;4.456;2023-02-01T02:54:28;18.70;;;4.77;;
9496;SDS011;4786;51.270;4.456;2023-02-01T02:57:17;15.70;;;4.53;;
9496;SDS011;4786;51.270;4.456;2023-02-01T03:00:06;17.57;;;4.70;;
9496;SDS011;4786;51.270;4.456;2023-02-01T03:02:54;18.93;;;5.00;;
9496;SDS011;4786;51.270;4.456;2023-02-01T03:05:40;14.30;;;4.40;;
9496;SDS011;4786;51.270;4.456;2023-02-01T03:08:10;18.63;;;5.33;;
9496;SDS011;4786;51.270;4.456;2023-02-01T03:21:35;16.60;;;4.67;;
9496;SDS011;4786;51.270;4.456;2023-02-01T03:24:11;18.87;;;4.80;;
9496;SDS011;4786;51.270;4.456;2023-02-01T03:26:46;22.60;;;4.97;;
9496;SDS011;4786;51.270;4.456;2023-02-01T03:29:21;15.33;;;4.70;;
9496;SDS011;4786;51.270;4.456;2023-02-01T03:31:54;21.17;;;5.10;;
9496;SDS011;4786;51.270;4.456;2023-02-01T03:34:20;16.13;;;4.73;;
9496;SDS011;4786;51.270;4.456;2023-02-01T03:36:48;20.97;;;4.93;;
9496;SDS011;4786;51.270;4.456;2023-02-01T03:42:40;19.07;;;5.00;;
9496;SDS011;4786;51.270;4.456;2023-02-01T03:47:33;18.57;;;5.13;;
9496;SDS011;4786;51.270;4.456;2023-02-01T03:50:03;17.07;;;4.47;;
9496;SDS011;4786;51.270;4.456;2023-02-01T03:53:05;19.20;;;4.90;;
9496;SDS011;4786;51.270;4.456;2023-02-01T03:55:26;19.73;;;5.70;;
9496;SDS011;4786;51.270;4.456;2023-02-01T03:57:56;16.07;;;5.67;;
9496;SDS011;4786;51.270;4.456;2023-02-01T04:00:24;18.33;;;5.67;;
9496;SDS011;4786;51.270;4.456;2023-02-01T04:02:51;18.63;;;5.23;;
9496;SDS011;4786;51.270;4.456;2023-02-01T04:05:18;25.73;;;6.20;;
9496;SDS011;4786;51.270;4.456;2023-02-01T04:07:45;21.87;;;5.90;;
9496;SDS011;4786;51.270;4.456;2023-02-01T04:10:11;21.47;;;5.83;;
9496;SDS011;4786;51.270;4.456;2023-02-01T04:12:38;18.90;;;5.67;;
9496;SDS011;4786;51.270;4.456;2023-02-01T04:15:04;21.53;;;5.23;;
9496;SDS011;4786;51.270;4.456;2023-02-01T04:17:31;22.10;;;5.97;;
9496;SDS011;4786;51.270;4.456;2023-02-01T04:19:57;21.57;;;5.77;;
9496;SDS011;4786;51.270;4.456;2023-02-01T04:22:23;17.30;;;4.80;;
9496;SDS011;4786;51.270;4.456;2023-02-01T04:24:49;16.50;;;5.57;;
9496;SDS011;4786;51.270;4.456;2023-02-01T04:27:15;22.33;;;5.30;;
9496;SDS011;4786;51.270;4.456;2023-02-01T04:29:41;19.97;;;5.67;;
9496;SDS011;4786;51.270;4.456;2023-02-01T04:32:07;19.80;;;5.60;;
9496;SDS011;4786;51.270;4.456;2023-02-01T04:34:33;20.23;;;5.73;;
9496;SDS011;4786;51.270;4.456;2023-02-01T04:36:59;23.43;;;6.00;;
9496;SDS011;4786;51.270;4.456;2023-02-01T04:39:25;18.97;;;5.47;;
9496;SDS011;4786;51.270;4.456;2023-02-01T04:41:51;19.90;;;5.27;;
9496;SDS011;4786;51.270;4.456;2023-02-01T04:44:17;20.33;;;5.47;;
9496;SDS011;4786;51.270;4.456;2023-02-01T04:46:44;26.40;;;5.27;;
9496;SDS011;4786;51.270;4.456;2023-02-01T04:49:11;21.97;;;4.93;;
9496;SDS011;4786;51.270;4.456;2023-02-01T04:51:37;19.17;;;5.27;;
9496;SDS011;4786;51.270;4.456;2023-02-01T04:54:04;18.03;;;5.20;;
9496;SDS011;4786;51.270;4.456;2023-02-01T04:56:30;19.80;;;5.90;;
9496;SDS011;4786;51.270;4.456;2023-02-01T04:58:56;18.90;;;5.57;;
9496;SDS011;4786;51.270;4.456;2023-02-01T05:01:23;21.57;;;4.90;;
9496;SDS011;4786;51.270;4.456;2023-02-01T05:03:49;24.33;;;5.37;;
9496;SDS011;4786;51.270;4.456;2023-02-01T05:06:16;17.90;;;5.53;;
9496;SDS011;4786;51.270;4.456;2023-02-01T05:08:42;17.70;;;5.20;;
9496;SDS011;4786;51.270;4.456;2023-02-01T05:11:08;25.70;;;6.17;;
9496;SDS011;4786;51.270;4.456;2023-02-01T05:13:57;21.13;;;5.87;;
9496;SDS011;4786;51.270;4.456;2023-02-01T05:16:25;25.07;;;5.83;;
9496;SDS011;4786;51.270;4.456;2023-02-01T05:18:51;21.07;;;5.80;;
9496;SDS011;4786;51.270;4.456;2023-02-01T05:21:18;23.23;;;6.00;;
9496;SDS011;4786;51.270;4.456;2023-02-01T05:23:44;26.63;;;6.20;;
9496;SDS011;4786;51.270;4.456;2023-02-01T05:26:39;20.40;;;5.53;;
9496;SDS011;4786;51.270;4.456;2023-02-01T05:29:07;17.77;;;4.97;;
9496;SDS011;4786;51.270;4.456;2023-02-01T05:31:34;21.57;;;5.57;;
9496;SDS011;4786;51.270;4.456;2023-02-01T05:34:01;19.17;;;5.50;;
9496;SDS011;4786;51.270;4.456;2023-02-01T05:36:27;22.63;;;5.23;;
9496;SDS011;4786;51.270;4.456;2023-02-01T05:38:53;22.03;;;5.60;;
9496;SDS011;4786;51.270;4.456;2023-02-01T05:41:19;22.70;;;6.20;;
9496;SDS011;4786;51.270;4.456;2023-02-01T05:43:44;13.57;;;5.07;;
9496;SDS011;4786;51.270;4.456;2023-02-01T05:46:11;22.70;;;6.63;;
9496;SDS011;4786;51.270;4.456;2023-02-01T05:48:41;23.27;;;5.90;;
9496;SDS011;4786;51.270;4.456;2023-02-01T05:51:08;20.07;;;5.20;;
9496;SDS011;4786;51.270;4.456;2023-02-01T05:53:35;19.83;;;5.90;;
9496;SDS011;4786;51.270;4.456;2023-02-01T05:56:00;21.10;;;6.03;;
9496;SDS011;4786;51.270;4.456;2023-02-01T05:58:26;19.40;;;5.70;;
9496;SDS011;4786;51.270;4.456;2023-02-01T06:00:52;23.30;;;5.30;;
9496;SDS011;4786;51.270;4.456;2023-02-01T06:03:17;22.70;;;6.00;;
9496;SDS011;4786;51.270;4.456;2023-02-01T06:05:44;22.13;;;5.60;;
9496;SDS011;4786;51.270;4.456;2023-02-01T06:08:10;18.13;;;5.50;;
9496;SDS011;4786;51.270;4.456;2023-02-01T06:10:37;20.33;;;5.63;;
9496;SDS011;4786;51.270;4.456;2023-02-01T06:13:03;18.20;;;5.43;;
9496;SDS011;4786;51.270;4.456;2023-02-01T06:15:29;28.57;;;6.10;;
9496;SDS011;4786;51.270;4.456;2023-02-01T06:17:55;22.47;;;5.20;;
9496;SDS011;4786;51.270;4.456;2023-02-01T06:20:20;26.23;;;6.33;;
9496;SDS011;4786;51.270;4.456;2023-02-01T06:22:46;24.80;;;6.63;;
9496;SDS011;4786;51.270;4.456;2023-02-01T06:25:12;21.10;;;5.70;;
9496;SDS011;4786;51.270;4.456;2023-02-01T06:27:38;16.93;;;5.20;;
9496;SDS011;4786;51.270;4.456;2023-02-01T06:30:05;20.73;;;5.13;;
9496;SDS011;4786;51.270;4.456;2023-02-01T06:32:33;19.87;;;5.37;;
9496;SDS011;4786;51.270;4.456;2023-02-01T06:34:59;18.27;;;5.37;;
9496;SDS011;4786;51.270;4.456;2023-02-01T06:37:25;17.63;;;5.13;;
9496;SDS011;4786;51.270;4.456;2023-02-01T06:39:54;20.00;;;5.47;;
9496;SDS011;4786;51.270;4.456;2023-02-01T06:42:20;15.53;;;4.70;;
9496;SDS011;4786;51.270;4.456;2023-02-01T06:44:45;17.47;;;4.97;;
9496;SDS011;4786;51.270;4.456;2023-02-01T06:47:11;18.60;;;4.90;;
9496;SDS011;4786;51.270;4.456;2023-02-01T06:49:37;14.97;;;3.97;;
9496;SDS011;4786;51.270;4.456;2023-02-01T06:52:03;19.67;;;4.80;;
9496;SDS011;4786;51.270;4.456;2023-02-01T06:54:29;16.63;;;5.30;;
9496;SDS011;4786;51.270;4.456;2023-02-01T06:56:58;15.47;;;4.63;;
9496;SDS011;4786;51.270;4.456;2023-02-01T06:59:24;17.77;;;4.60;;
9496;SDS011;4786;51.270;4.456;2023-02-01T07:01:49;16.40;;;4.17;;
9496;SDS011;4786;51.270;4.456;2023-02-01T07:04:16;17.60;;;4.63;;
9496;SDS011;4786;51.270;4.456;2023-02-01T07:06:41;22.00;;;5.40;;
9496;SDS011;4786;51.270;4.456;2023-02-01T07:09:07;15.73;;;5.00;;
9496;SDS011;4786;51.270;4.456;2023-02-01T07:11:33;17.30;;;4.43;;
9496;SDS011;4786;51.270;4.456;2023-02-01T07:13:59;18.00;;;4.27;;
9496;SDS011;4786;51.270;4.456;2023-02-01T07:16:25;16.50;;;4.30;;
9496;SDS011;4786;51.270;4.456;2023-02-01T07:18:52;17.47;;;5.20;;
9496;SDS011;4786;51.270;4.456;2023-02-01T07:21:18;20.00;;;5.50;;
9496;SDS011;4786;51.270;4.456;2023-02-01T07:23:44;20.30;;;5.10;;
9496;SDS011;4786;51.270;4.456;2023-02-01T07:26:11;24.13;;;6.13;;
9496;SDS011;4786;51.270;4.456;2023-02-01T07:28:39;15.90;;;4.97;;
9496;SDS011;4786;51.270;4.456;2023-02-01T07:31:09;15.40;;;4.23;;
9496;SDS011;4786;51.270;4.456;2023-02-01T07:33:36;18.60;;;5.13;;
9496;SDS011;4786;51.270;4.456;2023-02-01T07:36:03;16.30;;;5.23;;
9496;SDS011;4786;51.270;4.456;2023-02-01T07:38:30;18.30;;;5.80;;
9496;SDS011;4786;51.270;4.456;2023-02-01T07:40:59;15.73;;;4.83;;
9496;SDS011;4786;51.270;4.456;2023-02-01T07:43:26;17.43;;;4.93;;
9496;SDS011;4786;51.270;4.456;2023-02-01T07:45:53;23.07;;;5.43;;
9496;SDS011;4786;51.270;4.456;2023-02-01T07:48:20;23.50;;;5.90;;
9496;SDS011;4786;51.270;4.456;2023-02-01T07:50:46;22.43;;;6.37;;
9496;SDS011;4786;51.270;4.456;2023-02-01T07:53:12;16.97;;;5.73;;
9496;SDS011;4786;51.270;4.456;2023-02-01T07:55:38;17.63;;;5.67;;
9496;SDS011;4786;51.270;4.456;2023-02-01T07:58:05;16.23;;;5.77;;
9496;SDS011;4786;51.270;4.456;2023-02-01T08:00:31;22.77;;;5.83;;
9496;SDS011;4786;51.270;4.456;2023-02-01T08:03:15;22.10;;;6.20;;
9496;SDS011;4786;51.270;4.456;2023-02-01T08:05:41;18.13;;;5.13;;
9496;SDS011;4786;51.270;4.456;2023-02-01T08:08:07;18.30;;;5.80;;
9496;SDS011;4786;51.270;4.456;2023-02-01T08:10:34;20.50;;;5.60;;
9496;SDS011;4786;51.270;4.456;2023-02-01T08:13:00;21.10;;;5.57;;
9496;SDS011;4786;51.270;4.456;2023-02-01T08:15:27;17.27;;;5.40;;
9496;SDS011;4786;51.270;4.456;2023-02-01T08:17:54;21.97;;;5.93;;
9496;SDS011;4786;51.270;4.456;2023-02-01T08:20:20;16.37;;;5.00;;
9496;SDS011;4786;51.270;4.456;2023-02-01T08:22:47;23.30;;;6.33;;
9496;SDS011;4786;51.270;4.456;2023-02-01T08:25:14;17.90;;;5.87;;
9496;SDS011;4786;51.270;4.456;2023-02-01T08:27:40;18.97;;;5.40;;
9496;SDS011;4786;51.270;4.456;2023-02-01T08:30:06;21.77;;;5.13;;
9496;SDS011;4786;51.270;4.456;2023-02-01T08:32:33;24.27;;;5.67;;
9496;SDS011;4786;51.270;4.456;2023-02-01T08:34:59;16.43;;;6.20;;
9496;SDS011;4786;51.270;4.456;2023-02-01T08:37:25;18.97;;;5.90;;
9496;SDS011;4786;51.270;4.456;2023-02-01T08:39:51;28.57;;;5.80;;
9496;SDS011;4786;51.270;4.456;2023-02-01T08:42:18;22.13;;;6.20;;
9496;SDS011;4786;51.270;4.456;2023-02-01T08:45:03;20.77;;;6.03;;
9496;SDS011;4786;51.270;4.456;2023-02-01T08:47:29;24.40;;;5.47;;
9496;SDS011;4786;51.270;4.456;2023-02-01T08:49:56;21.10;;;5.87;;
9496;SDS011;4786;51.270;4.456;2023-02-01T08:52:22;19.83;;;5.50;;
9496;SDS011;4786;51.270;4.456;2023-02-01T08:54:49;23.97;;;5.83;;
9496;SDS011;4786;51.270;4.456;2023-02-01T08:57:14;20.50;;;5.77;;
9496;SDS011;4786;51.270;4.456;2023-02-01T08:59:40;22.00;;;5.67;;
9496;SDS011;4786;51.270;4.456;2023-02-01T09:02:08;20.30;;;6.17;;
9496;SDS011;4786;51.270;4.456;2023-02-01T09:04:38;22.67;;;5.67;;
9496;SDS011;4786;51.270;4.456;2023-02-01T09:07:04;23.70;;;5.70;;
9496;SDS011;4786;51.270;4.456;2023-02-01T09:09:30;20.07;;;5.23;;
9496;SDS011;4786;51.270;4.456;2023-02-01T09:11:56;18.40;;;5.40;;
9496;SDS011;4786;51.270;4.456;2023-02-01T09:14:22;19.23;;;5.30;;
9496;SDS011;4786;51.270;4.456;2023-02-01T09:16:48;21.60;;;6.00;;
9496;SDS011;4786;51.270;4.456;2023-02-01T09:19:14;20.40;;;5.30;;
9496;SDS011;4786;51.270;4.456;2023-02-01T09:21:40;16.50;;;5.40;;
9496;SDS011;4786;51.270;4.456;2023-02-01T09:24:06;25.37;;;5.93;;
9496;SDS011;4786;51.270;4.456;2023-02-01T09:26:34;21.77;;;5.70;;
9496;SDS011;4786;51.270;4.456;2023-02-01T09:29:01;19.67;;;4.90;;
9496;SDS011;4786;51.270;4.456;2023-02-01T09:31:28;16.83;;;5.30;;
9496;SDS011;4786;51.270;4.456;2023-02-01T09:33:55;16.70;;;5.30;;
9496;SDS011;4786;51.270;4.456;2023-02-01T09:36:21;21.43;;;5.43;;
9496;SDS011;4786;51.270;4.456;2023-02-01T09:38:48;17.20;;;4.20;;
9496;SDS011;4786;51.270;4.456;2023-02-01T09:41:26;25.17;;;5.90;;
9496;SDS011;4786;51.270;4.456;2023-02-01T09:46:53;20.50;;;6.20;;
9496;SDS011;4786;51.270;4.456;2023-02-01T09:49:28;17.53;;;5.17;;
9496;SDS011;4786;51.270;4.456;2023-02-01T09:51:58;21.70;;;5.20;;
9496;SDS011;4786;51.270;4.456;2023-02-01T09:54:31;21.03;;;5.23;;
9496;SDS011;4786;51.270;4.456;2023-02-01T09:57:11;16.97;;;4.97;;
9496;SDS011;4786;51.270;4.456;2023-02-01T09:59:56;21.70;;;5.37;;
9496;SDS011;4786;51.270;4.456;2023-02-01T10:02:28;18.03;;;4.90;;
9496;SDS011;4786;51.270;4.456;2023-02-01T10:04:56;20.00;;;5.23;;
9496;SDS011;4786;51.270;4.456;2023-02-01T10:13:05;18.87;;;4.20;;
9496;SDS011;4786;51.270;4.456;2023-02-01T10:29:41;16.53;;;3.67;;
9496;SDS011;4786;51.270;4.456;2023-02-01T10:32:15;16.93;;;4.70;;
9496;SDS011;4786;51.270;4.456;2023-02-01T10:34:43;17.20;;;4.27;;
9496;SDS011;4786;51.270;4.456;2023-02-01T10:37:16;16.37;;;4.57;;
9496;SDS011;4786;51.270;4.456;2023-02-01T10:39:58;14.80;;;4.27;;
9496;SDS011;4786;51.270;4.456;2023-02-01T10:42:46;11.07;;;3.70;;
9496;SDS011;4786;51.270;4.456;2023-02-01T10:45:16;12.20;;;3.70;;
9496;SDS011;4786;51.270;4.456;2023-02-01T10:47:47;14.03;;;3.80;;
9496;SDS011;4786;51.270;4.456;2023-02-01T10:53:13;14.27;;;3.30;;
9496;SDS011;4786;51.270;4.456;2023-02-01T10:56:05;11.90;;;3.80;;
9496;SDS011;4786;51.270;4.456;2023-02-01T10:58:32;15.87;;;3.83;;
9496;SDS011;4786;51.270;4.456;2023-02-01T11:01:00;12.30;;;3.10;;
9496;SDS011;4786;51.270;4.456;2023-02-01T11:06:33;18.60;;;4.00;;
9496;SDS011;4786;51.270;4.456;2023-02-01T11:16:58;11.77;;;3.30;;
9496;SDS011;4786;51.270;4.456;2023-02-01T11:19:26;10.47;;;3.10;;
9496;SDS011;4786;51.270;4.456;2023-02-01T11:21:54;11.87;;;3.03;;
9496;SDS011;4786;51.270;4.456;2023-02-01T11:26:56;13.53;;;3.50;;
9496;SDS011;4786;51.270;4.456;2023-02-01T11:29:24;13.87;;;3.37;;
9496;SDS011;4786;51.270;4.456;2023-02-01T11:31:58;13.03;;;3.90;;
9496;SDS011;4786;51.270;4.456;2023-02-01T11:34:26;12.13;;;4.10;;
9496;SDS011;4786;51.270;4.456;2023-02-01T11:37:01;14.63;;;3.50;;
9496;SDS011;4786;51.270;4.456;2023-02-01T11:39:31;14.53;;;3.80;;
9496;SDS011;4786;51.270;4.456;2023-02-01T11:42:11;13.53;;;3.20;;
9496;SDS011;4786;51.270;4.456;2023-02-01T11:44:40;14.97;;;3.33;;
9496;SDS011;4786;51.270;4.456;2023-02-01T11:47:29;12.77;;;3.80;;
9496;SDS011;4786;51.270;4.456;2023-02-01T11:50:17;15.13;;;3.70;;
9496;SDS011;4786;51.270;4.456;2023-02-01T11:52:55;11.60;;;3.20;;
9496;SDS011;4786;51.270;4.456;2023-02-01T12:04:10;14.33;;;3.77;;
9496;SDS011;4786;51.270;4.456;2023-02-01T12:07:01;12.83;;;3.27;;
9496;SDS011;4786;51.270;4.456;2023-02-01T12:26:38;17.33;;;3.60;;
9496;SDS011;4786;51.270;4.456;2023-02-01T12:43:09;15.80;;;3.60;;
9496;SDS011;4786;51.270;4.456;2023-02-01T12:45:48;11.90;;;3.50;;
9496;SDS011;4786;51.270;4.456;2023-02-01T12:48:22;17.47;;;3.90;;
9496;SDS011;4786;51.270;4.456;2023-02-01T12:50:54;13.23;;;3.87;;
9496;SDS011;4786;51.270;4.456;2023-02-01T12:53:35;16.20;;;3.70;;
9496;SDS011;4786;51.270;4.456;2023-02-01T12:56:06;15.47;;;4.00;;
9496;SDS011;4786;51.270;4.456;2023-02-01T12:58:52;19.43;;;4.30;;
9496;SDS011;4786;51.270;4.456;2023-02-01T13:12:47;17.23;;;3.73;;
9496;SDS011;4786;51.270;4.456;2023-02-01T13:14:53;14.83;;;4.43;;
9496;SDS011;4786;51.270;4.456;2023-02-01T13:17:27;15.60;;;3.70;;
9496;SDS011;4786;51.270;4.456;2023-02-01T13:22:27;10.10;;;3.20;;
9496;SDS011;4786;51.270;4.456;2023-02-01T13:24:57;14.57;;;3.53;;
9496;SDS011;4786;51.270;4.456;2023-02-01T13:27:36;16.57;;;3.60;;
9496;SDS011;4786;51.270;4.456;2023-02-01T13:43:54;14.17;;;3.60;;
9496;SDS011;4786;51.270;4.456;2023-02-01T13:46:24;19.47;;;4.10;;
9496;SDS011;4786;51.270;4.456;2023-02-01T13:48:52;13.13;;;3.63;;
9496;SDS011;4786;51.270;4.456;2023-02-01T13:51:40;10.23;;;3.10;;
9496;SDS011;4786;51.270;4.456;2023-02-01T13:56:53;16.47;;;3.80;;
9496;SDS011;4786;51.270;4.456;2023-02-01T14:05:08;14.70;;;3.70;;
9496;SDS011;4786;51.270;4.456;2023-02-01T14:13:29;22.13;;;4.37;;
9496;SDS011;4786;51.270;4.456;2023-02-01T14:24:02;16.87;;;3.97;;
9496;SDS011;4786;51.270;4.456;2023-02-01T14:26:48;15.60;;;4.20;;
9496;SDS011;4786;51.270;4.456;2023-02-01T14:47:55;12.37;;;3.87;;
9496;SDS011;4786;51.270;4.456;2023-02-01T14:50:46;20.73;;;4.27;;
9496;SDS011;4786;51.270;4.456;2023-02-01T14:53:16;15.17;;;4.27;;
9496;SDS011;4786;51.270;4.456;2023-02-01T15:01:16;17.77;;;4.23;;
9496;SDS011;4786;51.270;4.456;2023-02-01T15:03:48;16.67;;;4.23;;
9496;SDS011;4786;51.270;4.456;2023-02-01T15:09:46;19.37;;;4.40;;
9496;SDS011;4786;51.270;4.456;2023-02-01T15:15:31;16.83;;;4.20;;
9496;SDS011;4786;51.270;4.456;2023-02-01T15:17:41;21.70;;;5.47;;
9496;SDS011;4786;51.270;4.456;2023-02-01T15:20:21;17.53;;;4.77;;
9496;SDS011;4786;51.270;4.456;2023-02-01T15:22:55;15.70;;;4.73;;
9496;SDS011;4786;51.270;4.456;2023-02-01T15:27:56;13.37;;;4.10;;
9496;SDS011;4786;51.270;4.456;2023-02-01T15:30:26;17.73;;;5.03;;
9496;SDS011;4786;51.270;4.456;2023-02-01T15:33:05;17.70;;;3.97;;
9496;SDS011;4786;51.270;4.456;2023-02-01T15:35:35;17.10;;;4.57;;
9496;SDS011;4786;51.270;4.456;2023-02-01T15:40:53;18.60;;;4.73;;
9496;SDS011;4786;51.270;4.456;2023-02-01T15:43:21;23.20;;;5.00;;
9496;SDS011;4786;51.270;4.456;2023-02-01T15:45:48;19.30;;;4.50;;
9496;SDS011;4786;51.270;4.456;2023-02-01T15:48:20;19.40;;;4.60;;
9496;SDS011;4786;51.270;4.456;2023-02-01T15:50:50;18.37;;;4.67;;
9496;SDS011;4786;51.270;4.456;2023-02-01T15:53:23;15.70;;;4.70;;
9496;SDS011;4786;51.270;4.456;2023-02-01T15:55:56;14.93;;;4.33;;
9496;SDS011;4786;51.270;4.456;2023-02-01T15:58:24;17.97;;;4.43;;
9496;SDS011;4786;51.270;4.456;2023-02-01T16:00:53;14.43;;;4.37;;
9496;SDS011;4786;51.270;4.456;2023-02-01T16:06:10;19.77;;;4.47;;
9496;SDS011;4786;51.270;4.456;2023-02-01T16:08:53;17.87;;;4.83;;
9496;SDS011;4786;51.270;4.456;2023-02-01T16:11:32;19.23;;;4.27;;
9496;SDS011;4786;51.270;4.456;2023-02-01T16:14:05;17.00;;;4.10;;
9496;SDS011;4786;51.270;4.456;2023-02-01T16:16:31;17.50;;;4.40;;
9496;SDS011;4786;51.270;4.456;2023-02-01T16:18:57;19.77;;;4.77;;
9496;SDS011;4786;51.270;4.456;2023-02-01T16:21:23;16.83;;;4.23;;
9496;SDS011;4786;51.270;4.456;2023-02-01T16:23:52;18.33;;;5.00;;
9496;SDS011;4786;51.270;4.456;2023-02-01T16:26:19;17.43;;;5.23;;
9496;SDS011;4786;51.270;4.456;2023-02-01T16:28:46;16.83;;;4.87;;
9496;SDS011;4786;51.270;4.456;2023-02-01T16:31:13;16.07;;;3.90;;
9496;SDS011;4786;51.270;4.456;2023-02-01T16:33:45;19.47;;;4.90;;
9496;SDS011;4786;51.270;4.456;2023-02-01T16:36:12;17.47;;;4.10;;
9496;SDS011;4786;51.270;4.456;2023-02-01T16:38:40;13.60;;;3.87;;
9496;SDS011;4786;51.270;4.456;2023-02-01T16:41:06;17.23;;;4.97;;
9496;SDS011;4786;51.270;4.456;2023-02-01T16:43:33;17.17;;;4.30;;
9496;SDS011;4786;51.270;4.456;2023-02-01T16:45:59;14.30;;;3.90;;
9496;SDS011;4786;51.270;4.456;2023-02-01T16:48:30;17.37;;;4.87;;
9496;SDS011;4786;51.270;4.456;2023-02-01T16:50:59;14.07;;;4.10;;
9496;SDS011;4786;51.270;4.456;2023-02-01T16:53:28;15.93;;;4.40;;
9496;SDS011;4786;51.270;4.456;2023-02-01T16:55:57;13.27;;;4.33;;
9496;SDS011;4786;51.270;4.456;2023-02-01T16:58:24;13.73;;;4.27;;
9496;SDS011;4786;51.270;4.456;2023-02-01T17:00:51;14.13;;;3.83;;
9496;SDS011;4786;51.270;4.456;2023-02-01T17:03:17;20.07;;;4.83;;
9496;SDS011;4786;51.270;4.456;2023-02-01T17:05:49;21.83;;;5.50;;
9496;SDS011;4786;51.270;4.456;2023-02-01T17:08:28;18.00;;;6.07;;
9496;SDS011;4786;51.270;4.456;2023-02-01T17:10:55;19.50;;;4.97;;
9496;SDS011;4786;51.270;4.456;2023-02-01T17:13:21;17.87;;;4.43;;
9496;SDS011;4786;51.270;4.456;2023-02-01T17:15:49;21.17;;;4.63;;
9496;SDS011;4786;51.270;4.456;2023-02-01T17:18:24;14.70;;;4.57;;
9496;SDS011;4786;51.270;4.456;2023-02-01T17:20:55;14.90;;;4.20;;
9496;SDS011;4786;51.270;4.456;2023-02-01T17:23:23;15.40;;;4.40;;
9496;SDS011;4786;51.270;4.456;2023-02-01T17:25:49;17.77;;;4.67;;
9496;SDS011;4786;51.270;4.456;2023-02-01T17:28:15;21.03;;;4.93;;
9496;SDS011;4786;51.270;4.456;2023-02-01T17:30:41;14.10;;;4.10;;
9496;SDS011;4786;51.270;4.456;2023-02-01T17:33:41;16.97;;;4.87;;
9496;SDS011;4786;51.270;4.456;2023-02-01T17:36:00;21.80;;;5.33;;
9496;SDS011;4786;51.270;4.456;2023-02-01T17:38:27;18.43;;;4.80;;
9496;SDS011;4786;51.270;4.456;2023-02-01T17:40:53;14.07;;;4.07;;
9496;SDS011;4786;51.270;4.456;2023-02-01T17:43:20;20.13;;;5.00;;
9496;SDS011;4786;51.270;4.456;2023-02-01T17:48:36;17.43;;;4.70;;
9496;SDS011;4786;51.270;4.456;2023-02-01T17:51:02;15.53;;;4.67;;
9496;SDS011;4786;51.270;4.456;2023-02-01T17:53:28;15.13;;;4.20;;
9496;SDS011;4786;51.270;4.456;2023-02-01T17:55:54;16.33;;;4.50;;
9496;SDS011;4786;51.270;4.456;2023-02-01T17:58:22;17.73;;;4.53;;
9496;SDS011;4786;51.270;4.456;2023-02-01T18:00:49;16.80;;;5.37;;
9496;SDS011;4786;51.270;4.456;2023-02-01T18:05:47;15.10;;;4.53;;
9496;SDS011;4786;51.270;4.456;2023-02-01T18:08:17;17.77;;;5.00;;
9496;SDS011;4786;51.270;4.456;2023-02-01T18:10:46;19.73;;;4.17;;
9496;SDS011;4786;51.270;4.456;2023-02-01T18:13:22;20.30;;;4.70;;
9496;SDS011;4786;51.270;4.456;2023-02-01T18:15:48;18.93;;;4.47;;
9496;SDS011;4786;51.270;4.456;2023-02-01T18:18:13;17.17;;;4.40;;
9496;SDS011;4786;51.270;4.456;2023-02-01T18:20:41;15.13;;;4.70;;
9496;SDS011;4786;51.270;4.456;2023-02-01T18:23:15;15.17;;;4.43;;
9496;SDS011;4786;51.270;4.456;2023-02-01T18:25:44;16.73;;;4.47;;
9496;SDS011;4786;51.270;4.456;2023-02-01T18:28:11;14.87;;;4.37;;
9496;SDS011;4786;51.270;4.456;2023-02-01T18:30:42;17.43;;;4.30;;
9496;SDS011;4786;51.270;4.456;2023-02-01T18:33:10;15.50;;;4.20;;
9496;SDS011;4786;51.270;4.456;2023-02-01T18:35:38;18.47;;;4.57;;
9496;SDS011;4786;51.270;4.456;2023-02-01T18:38:04;21.53;;;4.60;;
9496;SDS011;4786;51.270;4.456;2023-02-01T18:43:10;13.77;;;4.73;;
9496;SDS011;4786;51.270;4.456;2023-02-01T18:45:37;15.77;;;4.50;;
9496;SDS011;4786;51.270;4.456;2023-02-01T18:48:06;15.83;;;4.50;;
9496;SDS011;4786;51.270;4.456;2023-02-01T18:50:34;22.77;;;4.70;;
9496;SDS011;4786;51.270;4.456;2023-02-01T18:53:04;15.93;;;4.50;;
9496;SDS011;4786;51.270;4.456;2023-02-01T18:55:32;22.17;;;4.40;;